sensor_id;sensor_type;location;lat;lon;timestamp;temperature;humidity
10889;DHT22;5497;51.388;6.780;2022-09-09T00:01:14;15.10;99.90
10889;DHT22;5497;51.388;6.780;2022-09-09T00:03:44;15.10;99.90
10889;DHT22;5497;51.388;6.780;2022-09-09T00:06:15;15.10;99.90
10889;DHT22;5497;51.388;6.780;2022-09-09T00:08:50;15.10;99.90
10889;DHT22;5497;51.388;6.780;2022-09-09T00:11:24;15.10;99.90
10889;DHT22;5497;51.388;6.780;2022-09-09T00:13:53;15.10;99.90
10889;DHT22;5497;51.388;6.780;2022-09-09T00:16:22;15.10;99.90
10889;DHT22;5497;51.388;6.780;2022-09-09T00:18:55;15.10;99.90
10889;DHT22;5497;51.388;6.780;2022-09-09T00:21:23;15.10;99.90
10889;DHT22;5497;51.388;6.780;2022-09-09T00:23:53;15.10;99.90
10889;DHT22;5497;51.388;6.780;2022-09-09T00:26:22;15.10;99.90
10889;DHT22;5497;51.388;6.780;2022-09-09T00:28:58;15.10;99.90
10889;DHT22;5497;51.388;6.780;2022-09-09T00:31:28;15.10;99.90
10889;DHT22;5497;51.388;6.780;2022-09-09T00:33:58;15.10;99.90
10889;DHT22;5497;51.388;6.780;2022-09-09T00:36:28;15.10;99.90
10889;DHT22;5497;51.388;6.780;2022-09-09T00:38:58;15.10;99.90
10889;DHT22;5497;51.388;6.780;2022-09-09T00:41:29;15.10;99.90
10889;DHT22;5497;51.388;6.780;2022-09-09T00:44:07;15.10;99.90
10889;DHT22;5497;51.388;6.780;2022-09-09T00:46:41;15.10;99.90
10889;DHT22;5497;51.388;6.780;2022-09-09T00:49:19;15.10;99.90
10889;DHT22;5497;51.388;6.780;2022-09-09T00:51:53;15.10;99.90
10889;DHT22;5497;51.388;6.780;2022-09-09T00:54:28;15.10;99.90
10889;DHT22;5497;51.388;6.780;2022-09-09T00:57:02;15.10;99.90
10889;DHT22;5497;51.388;6.780;2022-09-09T00:59:32;15.10;99.90
10889;DHT22;5497;51.388;6.780;2022-09-09T01:02:07;15.10;99.90
10889;DHT22;5497;51.388;6.780;2022-09-09T01:04:40;15.10;99.90
10889;DHT22;5497;51.388;6.780;2022-09-09T01:07:09;15.10;99.90
10889;DHT22;5497;51.388;6.780;2022-09-09T01:09:42;15.10;99.90
10889;DHT22;5497;51.388;6.780;2022-09-09T01:12:14;15.00;99.90
10889;DHT22;5497;51.388;6.780;2022-09-09T01:14:45;15.00;99.90
10889;DHT22;5497;51.388;6.780;2022-09-09T01:17:17;14.90;99.90
10889;DHT22;5497;51.388;6.780;2022-09-09T01:20:02;14.80;99.90
10889;DHT22;5497;51.388;6.780;2022-09-09T01:22:35;14.80;99.90
10889;DHT22;5497;51.388;6.780;2022-09-09T01:25:09;14.70;99.90
10889;DHT22;5497;51.388;6.780;2022-09-09T01:27:53;14.70;99.90
10889;DHT22;5497;51.388;6.780;2022-09-09T01:30:22;14.60;99.90
10889;DHT22;5497;51.388;6.780;2022-09-09T01:32:52;14.60;99.90
10889;DHT22;5497;51.388;6.780;2022-09-09T01:35:22;14.50;99.90
10889;DHT22;5497;51.388;6.780;2022-09-09T01:37:54;14.50;99.90
10889;DHT22;5497;51.388;6.780;2022-09-09T01:40:21;14.50;99.90
10889;DHT22;5497;51.388;6.780;2022-09-09T01:42:48;14.40;99.90
10889;DHT22;5497;51.388;6.780;2022-09-09T01:45:16;14.40;99.90
10889;DHT22;5497;51.388;6.780;2022-09-09T01:47:44;14.30;99.90
10889;DHT22;5497;51.388;6.780;2022-09-09T01:50:47;14.30;99.90
10889;DHT22;5497;51.388;6.780;2022-09-09T01:53:20;14.30;99.90
10889;DHT22;5497;51.388;6.780;2022-09-09T01:55:49;14.30;99.90
10889;DHT22;5497;51.388;6.780;2022-09-09T01:58:24;14.20;99.90
10889;DHT22;5497;51.388;6.780;2022-09-09T02:01:00;14.20;99.90
10889;DHT22;5497;51.388;6.780;2022-09-09T02:03:28;14.20;99.90
10889;DHT22;5497;51.388;6.780;2022-09-09T02:06:05;14.30;99.90
10889;DHT22;5497;51.388;6.780;2022-09-09T02:08:36;14.40;99.90
10889;DHT22;5497;51.388;6.780;2022-09-09T02:11:08;14.40;99.90
10889;DHT22;5497;51.388;6.780;2022-09-09T02:13:42;14.50;99.90
10889;DHT22;5497;51.388;6.780;2022-09-09T02:16:14;14.50;99.90
10889;DHT22;5497;51.388;6.780;2022-09-09T02:18:47;14.60;99.90
10889;DHT22;5497;51.388;6.780;2022-09-09T02:21:16;14.70;99.90
10889;DHT22;5497;51.388;6.780;2022-09-09T02:23:43;14.50;99.90
10889;DHT22;5497;51.388;6.780;2022-09-09T02:26:12;14.80;99.90
10889;DHT22;5497;51.388;6.780;2022-09-09T02:28:47;14.90;99.90
10889;DHT22;5497;51.388;6.780;2022-09-09T02:31:17;15.00;99.90
10889;DHT22;5497;51.388;6.780;2022-09-09T02:33:47;15.00;99.90
10889;DHT22;5497;51.388;6.780;2022-09-09T02:36:18;15.10;99.90
10889;DHT22;5497;51.388;6.780;2022-09-09T02:38:46;15.10;99.90
10889;DHT22;5497;51.388;6.780;2022-09-09T02:41:16;15.10;99.90
10889;DHT22;5497;51.388;6.780;2022-09-09T02:43:43;15.10;99.90
10889;DHT22;5497;51.388;6.780;2022-09-09T02:46:29;16.40;99.90
10889;DHT22;5497;51.388;6.780;2022-09-09T02:48:59;15.10;99.90
10889;DHT22;5497;51.388;6.780;2022-09-09T02:51:32;15.00;99.90
10889;DHT22;5497;51.388;6.780;2022-09-09T02:54:04;15.00;99.90
10889;DHT22;5497;51.388;6.780;2022-09-09T02:56:36;15.00;99.90
10889;DHT22;5497;51.388;6.780;2022-09-09T02:59:06;15.00;99.90
10889;DHT22;5497;51.388;6.780;2022-09-09T03:01:36;15.00;99.90
10889;DHT22;5497;51.388;6.780;2022-09-09T03:04:06;14.90;99.90
10889;DHT22;5497;51.388;6.780;2022-09-09T03:06:33;14.90;99.90
10889;DHT22;5497;51.388;6.780;2022-09-09T03:09:11;14.90;99.90
10889;DHT22;5497;51.388;6.780;2022-09-09T03:11:38;14.90;99.90
10889;DHT22;5497;51.388;6.780;2022-09-09T03:14:06;14.80;99.90
10889;DHT22;5497;51.388;6.780;2022-09-09T03:16:34;14.80;99.90
10889;DHT22;5497;51.388;6.780;2022-09-09T03:19:03;14.90;99.90
10889;DHT22;5497;51.388;6.780;2022-09-09T03:21:30;14.90;99.90
10889;DHT22;5497;51.388;6.780;2022-09-09T03:23:58;14.90;99.90
10889;DHT22;5497;51.388;6.780;2022-09-09T03:26:25;15.00;99.90
10889;DHT22;5497;51.388;6.780;2022-09-09T03:28:52;15.00;99.90
10889;DHT22;5497;51.388;6.780;2022-09-09T03:31:22;15.00;99.90
10889;DHT22;5497;51.388;6.780;2022-09-09T03:33:50;15.10;99.90
10889;DHT22;5497;51.388;6.780;2022-09-09T03:36:21;15.20;99.90
10889;DHT22;5497;51.388;6.780;2022-09-09T03:38:47;14.90;99.90
10889;DHT22;5497;51.388;6.780;2022-09-09T03:41:15;15.20;99.90
10889;DHT22;5497;51.388;6.780;2022-09-09T03:43:42;15.30;99.90
10889;DHT22;5497;51.388;6.780;2022-09-09T03:46:10;15.30;99.90
10889;DHT22;5497;51.388;6.780;2022-09-09T03:48:37;15.30;99.90
10889;DHT22;5497;51.388;6.780;2022-09-09T03:51:05;15.30;99.90
10889;DHT22;5497;51.388;6.780;2022-09-09T03:53:35;15.30;99.90
10889;DHT22;5497;51.388;6.780;2022-09-09T03:56:03;15.20;99.90
10889;DHT22;5497;51.388;6.780;2022-09-09T03:58:32;15.20;99.90
10889;DHT22;5497;51.388;6.780;2022-09-09T04:01:07;15.10;99.90
10889;DHT22;5497;51.388;6.780;2022-09-09T04:03:36;15.00;99.90
10889;DHT22;5497;51.388;6.780;2022-09-09T04:06:03;15.00;99.90
10889;DHT22;5497;51.388;6.780;2022-09-09T04:08:32;15.00;99.90
10889;DHT22;5497;51.388;6.780;2022-09-09T04:11:02;14.90;99.90
10889;DHT22;5497;51.388;6.780;2022-09-09T04:13:32;14.90;99.90
10889;DHT22;5497;51.388;6.780;2022-09-09T04:16:01;14.80;99.90
10889;DHT22;5497;51.388;6.780;2022-09-09T04:18:29;14.80;99.90
10889;DHT22;5497;51.388;6.780;2022-09-09T04:20:58;14.80;99.90
10889;DHT22;5497;51.388;6.780;2022-09-09T04:23:27;14.80;99.90
10889;DHT22;5497;51.388;6.780;2022-09-09T04:25:56;14.80;99.90
10889;DHT22;5497;51.388;6.780;2022-09-09T04:28:25;14.80;99.90
10889;DHT22;5497;51.388;6.780;2022-09-09T04:30:53;14.70;99.90
10889;DHT22;5497;51.388;6.780;2022-09-09T04:33:19;14.70;99.90
10889;DHT22;5497;51.388;6.780;2022-09-09T04:35:49;14.80;99.90
10889;DHT22;5497;51.388;6.780;2022-09-09T04:38:19;14.80;99.90
10889;DHT22;5497;51.388;6.780;2022-09-09T04:40:48;14.90;99.90
10889;DHT22;5497;51.388;6.780;2022-09-09T04:43:16;14.90;99.90
10889;DHT22;5497;51.388;6.780;2022-09-09T04:45:48;15.00;99.90
10889;DHT22;5497;51.388;6.780;2022-09-09T04:48:15;15.00;99.90
10889;DHT22;5497;51.388;6.780;2022-09-09T04:50:42;15.00;99.90
10889;DHT22;5497;51.388;6.780;2022-09-09T04:53:11;15.10;99.90
10889;DHT22;5497;51.388;6.780;2022-09-09T04:55:38;15.10;99.90
10889;DHT22;5497;51.388;6.780;2022-09-09T04:58:06;15.20;99.90
10889;DHT22;5497;51.388;6.780;2022-09-09T05:00:35;15.20;99.90
10889;DHT22;5497;51.388;6.780;2022-09-09T05:03:06;15.20;99.90
10889;DHT22;5497;51.388;6.780;2022-09-09T05:05:33;15.30;99.90
10889;DHT22;5497;51.388;6.780;2022-09-09T05:08:01;15.30;99.90
10889;DHT22;5497;51.388;6.780;2022-09-09T05:10:29;15.30;99.90
10889;DHT22;5497;51.388;6.780;2022-09-09T05:12:57;15.30;99.90
10889;DHT22;5497;51.388;6.780;2022-09-09T05:15:26;15.40;99.90
10889;DHT22;5497;51.388;6.780;2022-09-09T05:17:56;15.50;99.90
10889;DHT22;5497;51.388;6.780;2022-09-09T05:20:24;16.80;99.90
10889;DHT22;5497;51.388;6.780;2022-09-09T05:22:52;15.40;99.90
10889;DHT22;5497;51.388;6.780;2022-09-09T05:25:19;15.50;99.90
10889;DHT22;5497;51.388;6.780;2022-09-09T05:27:46;15.50;99.90
10889;DHT22;5497;51.388;6.780;2022-09-09T05:30:13;15.50;99.90
10889;DHT22;5497;51.388;6.780;2022-09-09T05:32:40;15.50;99.90
10889;DHT22;5497;51.388;6.780;2022-09-09T05:35:08;16.80;99.90
10889;DHT22;5497;51.388;6.780;2022-09-09T05:37:37;15.60;99.90
10889;DHT22;5497;51.388;6.780;2022-09-09T05:40:04;15.60;99.90
10889;DHT22;5497;51.388;6.780;2022-09-09T05:42:31;15.70;99.90
10889;DHT22;5497;51.388;6.780;2022-09-09T05:44:58;15.70;99.90
10889;DHT22;5497;51.388;6.780;2022-09-09T05:47:25;15.80;99.90
10889;DHT22;5497;51.388;6.780;2022-09-09T05:49:54;15.80;99.90
10889;DHT22;5497;51.388;6.780;2022-09-09T05:52:21;15.90;99.90
10889;DHT22;5497;51.388;6.780;2022-09-09T05:54:50;16.00;99.90
10889;DHT22;5497;51.388;6.780;2022-09-09T05:57:17;16.10;99.90
10889;DHT22;5497;51.388;6.780;2022-09-09T05:59:45;16.20;99.90
10889;DHT22;5497;51.388;6.780;2022-09-09T06:02:12;16.30;99.90
10889;DHT22;5497;51.388;6.780;2022-09-09T06:04:39;16.30;99.90
10889;DHT22;5497;51.388;6.780;2022-09-09T06:07:05;16.40;99.90
10889;DHT22;5497;51.388;6.780;2022-09-09T06:09:32;16.40;99.90
10889;DHT22;5497;51.388;6.780;2022-09-09T06:12:00;16.50;99.90
10889;DHT22;5497;51.388;6.780;2022-09-09T06:14:29;16.80;99.90
10889;DHT22;5497;51.388;6.780;2022-09-09T06:16:58;16.90;99.90
10889;DHT22;5497;51.388;6.780;2022-09-09T06:19:28;17.00;99.90
10889;DHT22;5497;51.388;6.780;2022-09-09T06:21:57;17.00;99.90
10889;DHT22;5497;51.388;6.780;2022-09-09T06:24:26;17.10;99.90
10889;DHT22;5497;51.388;6.780;2022-09-09T06:26:55;17.20;99.90
10889;DHT22;5497;51.388;6.780;2022-09-09T06:29:28;17.40;99.90
10889;DHT22;5497;51.388;6.780;2022-09-09T06:31:54;17.60;99.90
10889;DHT22;5497;51.388;6.780;2022-09-09T06:34:23;17.70;99.90
10889;DHT22;5497;51.388;6.780;2022-09-09T06:36:54;17.90;99.90
10889;DHT22;5497;51.388;6.780;2022-09-09T06:39:23;18.00;99.90
10889;DHT22;5497;51.388;6.780;2022-09-09T06:41:50;18.10;99.90
10889;DHT22;5497;51.388;6.780;2022-09-09T06:44:48;18.20;99.90
10889;DHT22;5497;51.388;6.780;2022-09-09T06:47:25;18.30;99.90
10889;DHT22;5497;51.388;6.780;2022-09-09T06:49:52;18.80;99.90
10889;DHT22;5497;51.388;6.780;2022-09-09T06:52:19;19.10;99.90
10889;DHT22;5497;51.388;6.780;2022-09-09T06:54:46;19.80;99.90
10889;DHT22;5497;51.388;6.780;2022-09-09T06:57:15;20.10;99.90
10889;DHT22;5497;51.388;6.780;2022-09-09T06:59:42;20.20;99.90
10889;DHT22;5497;51.388;6.780;2022-09-09T07:02:10;20.10;99.90
10889;DHT22;5497;51.388;6.780;2022-09-09T07:04:37;20.20;99.90
10889;DHT22;5497;51.388;6.780;2022-09-09T07:07:03;20.80;99.90
10889;DHT22;5497;51.388;6.780;2022-09-09T07:09:30;21.20;99.90
10889;DHT22;5497;51.388;6.780;2022-09-09T07:11:57;21.70;99.90
10889;DHT22;5497;51.388;6.780;2022-09-09T07:14:25;22.30;99.90
10889;DHT22;5497;51.388;6.780;2022-09-09T07:16:56;22.70;99.90
10889;DHT22;5497;51.388;6.780;2022-09-09T07:19:25;23.00;99.90
10889;DHT22;5497;51.388;6.780;2022-09-09T07:21:53;23.00;99.90
10889;DHT22;5497;51.388;6.780;2022-09-09T07:24:22;22.80;99.90
10889;DHT22;5497;51.388;6.780;2022-09-09T07:26:49;22.50;99.90
10889;DHT22;5497;51.388;6.780;2022-09-09T07:29:17;22.10;99.90
10889;DHT22;5497;51.388;6.780;2022-09-09T07:31:44;21.70;99.90
10889;DHT22;5497;51.388;6.780;2022-09-09T07:34:15;21.40;99.90
10889;DHT22;5497;51.388;6.780;2022-09-09T07:36:43;21.20;99.90
10889;DHT22;5497;51.388;6.780;2022-09-09T07:39:12;21.00;99.90
10889;DHT22;5497;51.388;6.780;2022-09-09T07:41:44;20.90;99.90
10889;DHT22;5497;51.388;6.780;2022-09-09T07:44:12;20.80;99.90
10889;DHT22;5497;51.388;6.780;2022-09-09T07:46:41;20.70;99.90
10889;DHT22;5497;51.388;6.780;2022-09-09T07:49:10;20.60;99.90
10889;DHT22;5497;51.388;6.780;2022-09-09T07:51:38;20.40;99.90
10889;DHT22;5497;51.388;6.780;2022-09-09T07:54:08;20.20;99.90
10889;DHT22;5497;51.388;6.780;2022-09-09T07:56:37;20.20;99.90
10889;DHT22;5497;51.388;6.780;2022-09-09T07:59:05;20.20;99.90
10889;DHT22;5497;51.388;6.780;2022-09-09T08:01:34;20.30;99.90
10889;DHT22;5497;51.388;6.780;2022-09-09T08:04:05;20.70;99.90
10889;DHT22;5497;51.388;6.780;2022-09-09T08:06:34;20.90;99.90
10889;DHT22;5497;51.388;6.780;2022-09-09T08:09:02;21.20;99.90
10889;DHT22;5497;51.388;6.780;2022-09-09T08:11:32;21.30;99.90
10889;DHT22;5497;51.388;6.780;2022-09-09T08:14:00;21.30;99.90
10889;DHT22;5497;51.388;6.780;2022-09-09T08:16:28;21.20;99.90
10889;DHT22;5497;51.388;6.780;2022-09-09T08:18:55;21.20;99.90
10889;DHT22;5497;51.388;6.780;2022-09-09T08:21:23;21.20;99.90
10889;DHT22;5497;51.388;6.780;2022-09-09T08:23:52;21.50;99.90
10889;DHT22;5497;51.388;6.780;2022-09-09T08:26:21;22.00;99.90
10889;DHT22;5497;51.388;6.780;2022-09-09T08:28:50;22.30;99.90
10889;DHT22;5497;51.388;6.780;2022-09-09T08:31:19;22.60;99.90
10889;DHT22;5497;51.388;6.780;2022-09-09T08:33:47;22.90;99.90
10889;DHT22;5497;51.388;6.780;2022-09-09T08:36:14;23.00;99.90
10889;DHT22;5497;51.388;6.780;2022-09-09T08:38:41;23.00;99.90
10889;DHT22;5497;51.388;6.780;2022-09-09T08:41:26;23.00;99.90
10889;DHT22;5497;51.388;6.780;2022-09-09T08:44:03;23.10;99.90
10889;DHT22;5497;51.388;6.780;2022-09-09T08:46:35;23.20;99.90
10889;DHT22;5497;51.388;6.780;2022-09-09T08:49:05;23.20;99.90
10889;DHT22;5497;51.388;6.780;2022-09-09T08:51:38;23.20;99.90
10889;DHT22;5497;51.388;6.780;2022-09-09T08:54:05;23.20;99.90
10889;DHT22;5497;51.388;6.780;2022-09-09T08:56:32;23.00;99.90
10889;DHT22;5497;51.388;6.780;2022-09-09T08:59:02;23.00;99.90
10889;DHT22;5497;51.388;6.780;2022-09-09T09:01:47;23.00;99.90
10889;DHT22;5497;51.388;6.780;2022-09-09T09:04:33;23.20;99.90
10889;DHT22;5497;51.388;6.780;2022-09-09T09:07:07;23.40;99.90
10889;DHT22;5497;51.388;6.780;2022-09-09T09:09:38;23.30;99.90
10889;DHT22;5497;51.388;6.780;2022-09-09T09:12:10;24.50;99.90
10889;DHT22;5497;51.388;6.780;2022-09-09T09:14:39;23.00;99.90
10889;DHT22;5497;51.388;6.780;2022-09-09T09:17:10;22.80;99.90
10889;DHT22;5497;51.388;6.780;2022-09-09T09:19:39;23.20;99.90
10889;DHT22;5497;51.388;6.780;2022-09-09T09:22:10;22.40;99.90
10889;DHT22;5497;51.388;6.780;2022-09-09T09:24:42;22.40;99.90
10889;DHT22;5497;51.388;6.780;2022-09-09T09:27:12;22.60;99.90
10889;DHT22;5497;51.388;6.780;2022-09-09T09:29:42;22.80;99.90
10889;DHT22;5497;51.388;6.780;2022-09-09T09:32:10;22.90;99.90
10889;DHT22;5497;51.388;6.780;2022-09-09T09:34:38;22.80;99.90
10889;DHT22;5497;51.388;6.780;2022-09-09T09:37:07;22.60;99.90
10889;DHT22;5497;51.388;6.780;2022-09-09T09:39:38;22.30;99.90
10889;DHT22;5497;51.388;6.780;2022-09-09T09:42:07;22.00;99.90
10889;DHT22;5497;51.388;6.780;2022-09-09T09:44:36;21.90;99.90
10889;DHT22;5497;51.388;6.780;2022-09-09T09:47:12;21.90;99.90
10889;DHT22;5497;51.388;6.780;2022-09-09T09:49:50;22.00;99.90
10889;DHT22;5497;51.388;6.780;2022-09-09T09:52:18;22.00;99.90
10889;DHT22;5497;51.388;6.780;2022-09-09T09:54:47;22.10;99.90
10889;DHT22;5497;51.388;6.780;2022-09-09T09:57:15;22.20;99.90
10889;DHT22;5497;51.388;6.780;2022-09-09T09:59:44;22.20;99.90
10889;DHT22;5497;51.388;6.780;2022-09-09T10:02:23;22.80;99.90
10889;DHT22;5497;51.388;6.780;2022-09-09T10:05:02;23.10;99.90
10889;DHT22;5497;51.388;6.780;2022-09-09T10:07:31;23.50;99.90
10889;DHT22;5497;51.388;6.780;2022-09-09T10:09:58;23.70;99.90
10889;DHT22;5497;51.388;6.780;2022-09-09T10:12:30;23.60;99.90
10889;DHT22;5497;51.388;6.780;2022-09-09T10:15:06;24.00;99.90
10889;DHT22;5497;51.388;6.780;2022-09-09T10:17:36;23.60;99.90
10889;DHT22;5497;51.388;6.780;2022-09-09T10:20:15;23.70;99.90
10889;DHT22;5497;51.388;6.780;2022-09-09T10:22:45;23.80;99.90
10889;DHT22;5497;51.388;6.780;2022-09-09T10:25:28;24.10;99.90
10889;DHT22;5497;51.388;6.780;2022-09-09T10:28:04;23.90;99.90
10889;DHT22;5497;51.388;6.780;2022-09-09T10:30:36;23.80;99.90
10889;DHT22;5497;51.388;6.780;2022-09-09T10:33:09;23.70;99.90
10889;DHT22;5497;51.388;6.780;2022-09-09T10:35:38;23.50;99.90
10889;DHT22;5497;51.388;6.780;2022-09-09T10:38:14;23.40;99.90
10889;DHT22;5497;51.388;6.780;2022-09-09T10:40:43;23.20;99.90
10889;DHT22;5497;51.388;6.780;2022-09-09T10:43:13;23.00;99.90
10889;DHT22;5497;51.388;6.780;2022-09-09T10:45:45;23.80;99.90
10889;DHT22;5497;51.388;6.780;2022-09-09T10:48:24;21.70;99.90
10889;DHT22;5497;51.388;6.780;2022-09-09T10:50:54;22.00;99.90
10889;DHT22;5497;51.388;6.780;2022-09-09T10:53:25;21.90;99.90
10889;DHT22;5497;51.388;6.780;2022-09-09T10:55:56;21.90;99.90
10889;DHT22;5497;51.388;6.780;2022-09-09T10:58:27;22.40;99.90
10889;DHT22;5497;51.388;6.780;2022-09-09T11:00:56;22.20;99.90
10889;DHT22;5497;51.388;6.780;2022-09-09T11:03:27;22.70;99.90
10889;DHT22;5497;51.388;6.780;2022-09-09T11:05:56;22.70;99.90
10889;DHT22;5497;51.388;6.780;2022-09-09T11:08:24;23.10;99.90
10889;DHT22;5497;51.388;6.780;2022-09-09T11:10:53;23.30;99.90
10889;DHT22;5497;51.388;6.780;2022-09-09T11:15:52;23.50;99.90
10889;DHT22;5497;51.388;6.780;2022-09-09T11:18:20;23.40;99.90
10889;DHT22;5497;51.388;6.780;2022-09-09T11:20:51;23.20;99.90
10889;DHT22;5497;51.388;6.780;2022-09-09T11:23:26;23.10;99.90
10889;DHT22;5497;51.388;6.780;2022-09-09T11:25:54;22.90;99.90
10889;DHT22;5497;51.388;6.780;2022-09-09T11:28:26;22.80;99.90
10889;DHT22;5497;51.388;6.780;2022-09-09T11:31:00;22.80;99.90
10889;DHT22;5497;51.388;6.780;2022-09-09T11:33:36;23.30;99.90
10889;DHT22;5497;51.388;6.780;2022-09-09T11:36:13;22.30;99.90
10889;DHT22;5497;51.388;6.780;2022-09-09T11:38:44;23.50;99.90
10889;DHT22;5497;51.388;6.780;2022-09-09T11:41:12;24.50;99.90
10889;DHT22;5497;51.388;6.780;2022-09-09T11:43:39;23.80;99.90
10889;DHT22;5497;51.388;6.780;2022-09-09T11:46:07;23.80;99.90
10889;DHT22;5497;51.388;6.780;2022-09-09T11:48:35;23.60;99.90
10889;DHT22;5497;51.388;6.780;2022-09-09T11:51:03;23.70;99.90
10889;DHT22;5497;51.388;6.780;2022-09-09T11:53:34;23.50;99.90
10889;DHT22;5497;51.388;6.780;2022-09-09T11:56:02;23.50;99.90
10889;DHT22;5497;51.388;6.780;2022-09-09T11:58:31;23.60;99.90
10889;DHT22;5497;51.388;6.780;2022-09-09T12:00:59;23.80;99.90
10889;DHT22;5497;51.388;6.780;2022-09-09T12:03:36;24.00;99.90
10889;DHT22;5497;51.388;6.780;2022-09-09T12:06:09;24.00;99.90
10889;DHT22;5497;51.388;6.780;2022-09-09T12:08:39;23.90;99.90
10889;DHT22;5497;51.388;6.780;2022-09-09T12:11:07;23.80;99.90
10889;DHT22;5497;51.388;6.780;2022-09-09T12:13:34;23.50;99.90
10889;DHT22;5497;51.388;6.780;2022-09-09T12:16:01;23.50;99.90
10889;DHT22;5497;51.388;6.780;2022-09-09T12:18:32;23.30;99.90
10889;DHT22;5497;51.388;6.780;2022-09-09T12:21:01;23.20;99.90
10889;DHT22;5497;51.388;6.780;2022-09-09T12:23:31;23.40;99.90
10889;DHT22;5497;51.388;6.780;2022-09-09T12:26:05;23.40;99.90
10889;DHT22;5497;51.388;6.780;2022-09-09T12:28:39;23.60;99.90
10889;DHT22;5497;51.388;6.780;2022-09-09T12:31:09;23.50;99.90
10889;DHT22;5497;51.388;6.780;2022-09-09T12:33:39;23.20;99.90
10889;DHT22;5497;51.388;6.780;2022-09-09T12:36:09;23.20;99.90
10889;DHT22;5497;51.388;6.780;2022-09-09T12:38:39;23.00;99.90
10889;DHT22;5497;51.388;6.780;2022-09-09T12:41:15;22.70;99.90
10889;DHT22;5497;51.388;6.780;2022-09-09T12:43:44;22.40;99.90
10889;DHT22;5497;51.388;6.780;2022-09-09T12:46:12;21.90;99.90
10889;DHT22;5497;51.388;6.780;2022-09-09T12:48:41;21.40;99.90
10889;DHT22;5497;51.388;6.780;2022-09-09T12:51:16;20.90;99.90
10889;DHT22;5497;51.388;6.780;2022-09-09T12:53:43;20.10;99.90
10889;DHT22;5497;51.388;6.780;2022-09-09T12:56:19;20.10;99.90
10889;DHT22;5497;51.388;6.780;2022-09-09T12:58:46;19.90;99.90
10889;DHT22;5497;51.388;6.780;2022-09-09T13:01:18;19.60;99.90
10889;DHT22;5497;51.388;6.780;2022-09-09T13:03:47;19.50;99.90
10889;DHT22;5497;51.388;6.780;2022-09-09T13:06:18;19.20;99.90
10889;DHT22;5497;51.388;6.780;2022-09-09T13:08:48;19.00;99.90
10889;DHT22;5497;51.388;6.780;2022-09-09T13:11:15;18.90;99.90
10889;DHT22;5497;51.388;6.780;2022-09-09T13:13:49;19.00;99.90
10889;DHT22;5497;51.388;6.780;2022-09-09T13:16:21;19.10;99.90
10889;DHT22;5497;51.388;6.780;2022-09-09T13:18:48;19.20;99.90
10889;DHT22;5497;51.388;6.780;2022-09-09T13:21:15;19.30;99.90
10889;DHT22;5497;51.388;6.780;2022-09-09T13:23:42;19.80;99.90
10889;DHT22;5497;51.388;6.780;2022-09-09T13:26:21;19.90;99.90
10889;DHT22;5497;51.388;6.780;2022-09-09T13:28:50;20.30;99.90
10889;DHT22;5497;51.388;6.780;2022-09-09T13:31:19;20.70;99.90
10889;DHT22;5497;51.388;6.780;2022-09-09T13:33:46;21.00;99.90
10889;DHT22;5497;51.388;6.780;2022-09-09T13:36:13;21.10;99.90
10889;DHT22;5497;51.388;6.780;2022-09-09T13:38:40;21.20;99.90
10889;DHT22;5497;51.388;6.780;2022-09-09T13:41:19;21.40;99.90
10889;DHT22;5497;51.388;6.780;2022-09-09T13:43:46;21.50;99.90
10889;DHT22;5497;51.388;6.780;2022-09-09T13:46:31;21.70;99.90
10889;DHT22;5497;51.388;6.780;2022-09-09T13:48:59;21.90;99.90
10889;DHT22;5497;51.388;6.780;2022-09-09T13:51:32;22.00;99.90
10889;DHT22;5497;51.388;6.780;2022-09-09T13:53:59;22.30;99.90
10889;DHT22;5497;51.388;6.780;2022-09-09T13:56:26;22.10;99.90
10889;DHT22;5497;51.388;6.780;2022-09-09T13:58:53;22.40;99.90
10889;DHT22;5497;51.388;6.780;2022-09-09T14:01:20;22.60;99.90
10889;DHT22;5497;51.388;6.780;2022-09-09T14:03:48;23.00;99.90
10889;DHT22;5497;51.388;6.780;2022-09-09T14:06:16;23.20;99.90
10889;DHT22;5497;51.388;6.780;2022-09-09T14:08:44;23.30;99.90
10889;DHT22;5497;51.388;6.780;2022-09-09T14:11:12;23.40;99.90
10889;DHT22;5497;51.388;6.780;2022-09-09T14:13:39;23.70;99.90
10889;DHT22;5497;51.388;6.780;2022-09-09T14:16:06;23.70;99.90
10889;DHT22;5497;51.388;6.780;2022-09-09T14:18:32;23.90;99.90
10889;DHT22;5497;51.388;6.780;2022-09-09T14:21:00;23.90;99.90
10889;DHT22;5497;51.388;6.780;2022-09-09T14:23:28;23.80;99.90
10889;DHT22;5497;51.388;6.780;2022-09-09T14:25:55;23.80;99.90
10889;DHT22;5497;51.388;6.780;2022-09-09T14:28:22;23.80;99.90
10889;DHT22;5497;51.388;6.780;2022-09-09T14:30:48;23.70;99.90
10889;DHT22;5497;51.388;6.780;2022-09-09T14:33:15;23.60;99.90
10889;DHT22;5497;51.388;6.780;2022-09-09T14:35:42;23.30;99.90
10889;DHT22;5497;51.388;6.780;2022-09-09T14:38:10;23.00;99.90
10889;DHT22;5497;51.388;6.780;2022-09-09T14:40:37;22.70;99.90
10889;DHT22;5497;51.388;6.780;2022-09-09T14:43:04;21.80;99.90
10889;DHT22;5497;51.388;6.780;2022-09-09T14:45:31;20.40;99.90
10889;DHT22;5497;51.388;6.780;2022-09-09T14:47:58;20.40;99.90
10889;DHT22;5497;51.388;6.780;2022-09-09T14:50:25;19.80;99.90
10889;DHT22;5497;51.388;6.780;2022-09-09T14:52:52;19.30;99.90
10889;DHT22;5497;51.388;6.780;2022-09-09T14:55:20;18.90;99.90
10889;DHT22;5497;51.388;6.780;2022-09-09T14:57:46;19.20;99.90
10889;DHT22;5497;51.388;6.780;2022-09-09T15:00:13;18.50;99.90
10889;DHT22;5497;51.388;6.780;2022-09-09T15:02:41;18.40;99.90
10889;DHT22;5497;51.388;6.780;2022-09-09T15:05:09;18.40;99.90
10889;DHT22;5497;51.388;6.780;2022-09-09T15:07:36;18.40;99.90
10889;DHT22;5497;51.388;6.780;2022-09-09T15:10:03;18.30;99.90
10889;DHT22;5497;51.388;6.780;2022-09-09T15:12:32;18.30;99.90
10889;DHT22;5497;51.388;6.780;2022-09-09T15:15:00;18.20;99.90
10889;DHT22;5497;51.388;6.780;2022-09-09T15:17:27;18.20;99.90
10889;DHT22;5497;51.388;6.780;2022-09-09T15:19:54;18.20;99.90
10889;DHT22;5497;51.388;6.780;2022-09-09T15:22:21;18.10;99.90
10889;DHT22;5497;51.388;6.780;2022-09-09T15:24:49;18.10;99.90
10889;DHT22;5497;51.388;6.780;2022-09-09T15:27:16;18.00;99.90
10889;DHT22;5497;51.388;6.780;2022-09-09T15:29:44;18.30;99.90
10889;DHT22;5497;51.388;6.780;2022-09-09T15:32:12;18.00;99.90
10889;DHT22;5497;51.388;6.780;2022-09-09T15:34:38;18.10;99.90
10889;DHT22;5497;51.388;6.780;2022-09-09T15:37:05;18.30;99.90
10889;DHT22;5497;51.388;6.780;2022-09-09T15:39:32;18.40;99.90
10889;DHT22;5497;51.388;6.780;2022-09-09T15:41:59;18.60;99.90
10889;DHT22;5497;51.388;6.780;2022-09-09T15:44:27;19.40;99.90
10889;DHT22;5497;51.388;6.780;2022-09-09T15:46:55;18.90;99.90
10889;DHT22;5497;51.388;6.780;2022-09-09T15:49:22;19.10;99.90
10889;DHT22;5497;51.388;6.780;2022-09-09T15:51:51;19.30;99.90
10889;DHT22;5497;51.388;6.780;2022-09-09T15:54:18;19.40;99.90
10889;DHT22;5497;51.388;6.780;2022-09-09T15:56:46;19.50;99.90
10889;DHT22;5497;51.388;6.780;2022-09-09T15:59:13;19.50;99.90
10889;DHT22;5497;51.388;6.780;2022-09-09T16:01:41;19.50;99.90
10889;DHT22;5497;51.388;6.780;2022-09-09T16:04:10;19.50;99.90